Time;durP1;ratioP1;P1;durP2;ratioP2;P2;SDS_P1;SDS_P2;PMS_P1;PMS_P2;Temp;Humidity;BMP_temperature;BMP_pressure;BME280_temperature;BME280_humidity;BME280_pressure;Samples;Min_cycle;Max_cycle;Signal;HPM_P1;HPM_P2
2022/03/06 07:59:18;;;;;;;22.83;17.77;;;;;;;1.73;65.30;102499.69;5260744;28;20411;-75
2022/03/06 08:01:49;;;;;;;23.33;18.42;;;;;;;1.65;65.86;102497.91;5246918;28;20034;-77
2022/03/06 08:04:21;;;;;;;25.15;19.30;;;;;;;1.76;65.59;102503.91;5228210;28;20029;-76
2022/03/06 08:06:52;;;;;;;24.00;18.73;;;;;;;1.82;65.68;102514.13;5220023;28;20022;-76
2022/03/06 08:09:24;;;;;;;23.40;17.85;;;;;;;1.87;65.73;102514.41;5221853;28;20117;-76
2022/03/06 08:11:55;;;;;;;22.77;19.27;;;;;;;1.84;65.48;102512.88;5218884;28;20038;-76
2022/03/06 08:14:27;;;;;;;24.55;19.05;;;;;;;1.82;66.37;102508.66;5228474;28;20018;-77
2022/03/06 08:16:59;;;;;;;25.58;18.42;;;;;;;1.95;66.03;102514.28;5240078;28;20034;-77
2022/03/06 08:19:30;;;;;;;24.02;18.30;;;;;;;1.91;65.64;102511.06;5239485;28;20034;-76
2022/03/06 08:22:02;;;;;;;22.85;17.92;;;;;;;1.97;65.63;102517.69;5238406;28;20035;-76
2022/03/06 08:24:33;;;;;;;22.05;17.42;;;;;;;1.95;65.42;102517.03;5238040;28;20037;-76
2022/03/06 08:27:05;;;;;;;20.50;16.52;;;;;;;2.01;65.15;102516.25;5238681;28;20034;-76
2022/03/06 08:29:36;;;;;;;21.27;18.08;;;;;;;2.12;65.39;102518.50;5237744;28;20083;-76
2022/03/06 08:32:08;;;;;;;23.45;18.45;;;;;;;1.94;65.19;102523.50;5244421;28;20476;-77
2022/03/06 08:34:39;;;;;;;23.48;17.48;;;;;;;2.07;65.76;102520.97;5237960;28;20038;-77
2022/03/06 08:37:10;;;;;;;22.02;17.35;;;;;;;2.17;64.42;102526.97;5238297;28;20036;-77
2022/03/06 08:39:42;;;;;;;21.30;17.98;;;;;;;2.13;64.48;102538.50;5238133;28;20085;-77
2022/03/06 08:42:14;;;;;;;20.08;16.60;;;;;;;2.17;64.82;102539.78;5236177;28;20428;-77
2022/03/06 08:44:46;;;;;;;20.88;16.73;;;;;;;2.29;64.53;102537.41;5238455;28;20532;-76
2022/03/06 08:47:17;;;;;;;23.73;17.92;;;;;;;2.31;64.92;102540.81;5238275;28;20117;-76
2022/03/06 08:49:48;;;;;;;24.27;17.67;;;;;;;2.38;64.93;102544.47;5254341;28;20035;-76
2022/03/06 08:52:20;;;;;;;21.55;16.90;;;;;;;2.57;64.30;102541.09;5258756;28;20060;-76
2022/03/06 08:54:51;;;;;;;19.20;16.75;;;;;;;2.49;64.21;102541.22;5259427;28;20017;-75
2022/03/06 08:57:23;;;;;;;22.42;18.20;;;;;;;2.56;64.02;102536.66;5258530;28;20151;-76
2022/03/06 08:59:54;;;;;;;24.05;17.00;;;;;;;2.67;64.49;102534.44;5233345;28;20486;-78
2022/03/06 09:02:26;;;;;;;22.13;17.45;;;;;;;2.75;63.39;102539.78;5217522;28;20062;-77
2022/03/06 09:04:57;;;;;;;18.63;15.70;;;;;;;2.76;64.13;102536.00;5235041;28;20030;-77
2022/03/06 09:07:28;;;;;;;21.00;15.60;;;;;;;2.85;64.44;102539.47;5258225;28;20037;-76
2022/03/06 09:09:59;;;;;;;20.58;16.23;;;;;;;2.95;64.37;102540.81;5232079;28;20080;-76
2022/03/06 09:12:31;;;;;;;19.38;15.98;;;;;;;3.10;63.08;102548.13;5224026;28;20034;-76
2022/03/06 09:15:02;;;;;;;20.30;16.63;;;;;;;3.09;63.50;102551.88;5224213;28;20026;-76
2022/03/06 09:17:34;;;;;;;21.15;16.77;;;;;;;3.20;63.62;102545.88;5222350;28;20076;-76
2022/03/06 09:20:06;;;;;;;21.98;16.90;;;;;;;3.22;62.84;102552.00;5223839;28;20104;-76
2022/03/06 09:22:37;;;;;;;18.35;16.40;;;;;;;3.19;63.26;102553.22;5230596;28;20487;-76
2022/03/06 09:25:09;;;;;;;20.15;17.00;;;;;;;3.23;62.17;102542.72;5244192;28;20022;-77
2022/03/06 09:27:40;;;;;;;21.25;16.52;;;;;;;3.19;62.65;102544.16;5244443;28;20029;-76
2022/03/06 09:30:13;;;;;;;21.85;16.75;;;;;;;3.29;62.94;102547.41;5244129;28;20104;-76
2022/03/06 09:32:44;;;;;;;20.35;16.88;;;;;;;3.35;62.65;102543.88;5236633;28;20536;-77
2022/03/06 09:35:16;;;;;;;19.40;16.48;;;;;;;3.46;62.13;102546.06;5203377;28;20194;-76
2022/03/06 09:37:47;;;;;;;20.35;16.30;;;;;;;3.45;61.67;102544.38;5203443;28;20030;-77
2022/03/06 09:40:19;;;;;;;18.02;15.93;;;;;;;3.45;61.17;102538.03;5231195;28;20025;-76
2022/03/06 09:42:50;;;;;;;21.27;16.17;;;;;;;3.51;61.06;102541.88;5243598;28;20025;-77
2022/03/06 09:45:28;;;;;;;18.38;16.05;;;;;;;3.57;60.82;102541.91;5243432;28;20405;-77
2022/03/06 09:48:01;;;;;;;21.95;16.83;;;;;;;3.69;60.92;102539.44;5244478;28;20022;-76
2022/03/06 09:50:32;;;;;;;20.77;16.05;;;;;;;3.78;60.75;102538.22;5223318;28;20029;-76
2022/03/06 09:53:06;;;;;;;21.08;17.48;;;;;;;3.72;60.70;102535.44;5203026;28;20018;-76
2022/03/06 09:55:43;;;;;;;19.10;15.85;;;;;;;3.89;61.55;102534.06;5222902;28;20091;-76
2022/03/06 09:58:14;;;;;;;21.30;16.83;;;;;;;3.92;60.55;102533.66;5242955;28;20045;-77
2022/03/06 10:00:46;;;;;;;18.73;15.70;;;;;;;3.92;60.91;102539.16;5243518;28;20022;-77
2022/03/06 10:03:19;;;;;;;18.85;16.05;;;;;;;3.99;60.37;102539.16;5240136;28;20029;-76
2022/03/06 10:05:51;;;;;;;18.33;16.42;;;;;;;3.89;60.49;102537.66;5223430;28;20037;-77
2022/03/06 10:08:27;;;;;;;21.30;16.88;;;;;;;4.01;60.46;102540.66;5221697;28;20033;-75
2022/03/06 10:11:05;;;;;;;19.60;16.23;;;;;;;4.14;60.43;102528.88;5223176;28;20022;-76
2022/03/06 10:13:45;;;;;;;19.58;16.00;;;;;;;4.32;60.32;102531.03;5228645;28;20040;-77
2022/03/06 10:16:22;;;;;;;18.70;16.42;;;;;;;4.29;60.63;102540.53;5243376;28;20025;-77
2022/03/06 10:18:55;;;;;;;21.92;16.73;;;;;;;4.41;60.18;102537.22;5228673;28;20495;-76
2022/03/06 10:21:36;;;;;;;19.92;15.98;;;;;;;4.36;59.65;102537.81;5219757;28;20470;-77
2022/03/06 10:24:08;;;;;;;19.15;16.10;;;;;;;4.51;59.41;102548.66;5216775;28;20042;-79
2022/03/06 10:26:42;;;;;;;17.35;15.50;;;;;;;4.54;59.80;102538.06;5211334;28;20108;-79
2022/03/06 10:29:14;;;;;;;17.15;15.35;;;;;;;4.55;59.55;102545.28;5211865;28;20474;-79
2022/03/06 10:31:56;;;;;;;19.38;17.13;;;;;;;4.64;59.47;102548.66;5238766;28;20068;-76
2022/03/06 10:34:35;;;;;;;16.95;14.82;;;;;;;4.62;59.71;102545.28;5221876;28;20417;-76
2022/03/06 10:37:11;;;;;;;18.95;15.88;;;;;;;4.60;58.99;102544.63;5222470;28;20060;-78
2022/03/06 10:39:48;;;;;;;17.23;15.43;;;;;;;4.64;59.01;102548.66;5222092;28;20113;-77
2022/03/06 10:42:22;;;;;;;18.15;14.65;;;;;;;4.70;58.37;102542.31;5205268;28;20026;-78
2022/03/06 10:44:53;;;;;;;19.08;14.68;;;;;;;4.88;57.94;102549.13;5207677;28;20068;-73
2022/03/06 10:47:25;;;;;;;16.40;14.45;;;;;;;4.91;57.09;102545.94;5227118;28;20021;-72
2022/03/06 10:50:06;;;;;;;26.00;17.70;;;;;;;5.06;58.01;102543.84;5241546;28;20025;-73
2022/03/06 10:52:53;;;;;;;19.75;14.40;;;;;;;5.21;57.42;102543.63;5242459;28;20030;-72
2022/03/06 10:55:34;;;;;;;16.27;13.50;;;;;;;5.21;57.03;102546.38;5241598;28;20057;-72
2022/03/06 10:58:06;;;;;;;14.95;13.32;;;;;;;5.21;54.92;102544.47;5228868;28;20054;-73
2022/03/06 11:00:38;;;;;;;18.08;14.77;;;;;;;5.30;54.70;102542.34;5201218;28;20073;-72
2022/03/06 11:03:13;;;;;;;15.85;14.15;;;;;;;5.38;55.04;102538.53;5200335;28;20033;-71
2022/03/06 11:05:46;;;;;;;17.10;13.95;;;;;;;5.42;55.02;102539.81;5222119;28;20045;-72
2022/03/06 11:08:18;;;;;;;14.95;13.32;;;;;;;5.54;54.57;102551.84;5221818;28;20409;-71
2022/03/06 11:10:50;;;;;;;14.45;12.57;;;;;;;5.49;53.21;102537.88;5219509;28;20022;-77
2022/03/06 11:13:22;;;;;;;14.18;12.68;;;;;;;5.58;53.08;102539.34;5221612;28;20111;-76
2022/03/06 11:15:55;;;;;;;14.20;12.70;;;;;;;5.62;53.01;102537.88;5210367;28;20030;-75
2022/03/06 11:18:27;;;;;;;13.35;11.93;;;;;;;5.68;53.55;102535.31;5220471;28;20444;-76
2022/03/06 11:21:01;;;;;;;14.10;12.30;;;;;;;5.83;54.07;102530.41;5222096;28;20022;-77
2022/03/06 11:23:45;;;;;;;14.85;12.70;;;;;;;5.95;53.05;102534.19;5226137;28;20048;-76
2022/03/06 11:26:22;;;;;;;30.27;23.60;;;;;;;5.97;52.61;102532.06;5221298;28;20014;-76
2022/03/06 11:29:19;;;;;;;26.27;19.98;;;;;;;6.10;53.11;102531.16;5219962;28;20060;-78
2022/03/06 11:31:55;;;;;;;14.35;12.93;;;;;;;6.07;51.55;102532.44;5216148;28;20026;-76
2022/03/06 11:34:34;;;;;;;15.35;12.63;;;;;;;6.10;51.09;102534.75;5213728;28;20037;-78
2022/03/06 11:37:13;;;;;;;13.27;11.98;;;;;;;6.11;50.62;102530.13;5220340;28;20025;-77
2022/03/06 11:39:48;;;;;;;15.43;12.88;;;;;;;5.99;50.65;102527.19;5224940;28;20022;-77
2022/03/06 11:42:48;;;;;;;13.38;11.98;;;;;;;6.21;50.85;102532.38;5221744;28;20091;-75
2022/03/06 11:45:45;;;;;;;14.45;12.18;;;;;;;6.37;51.40;102520.03;5223719;28;20033;-76
2022/03/06 11:48:34;;;;;;;14.07;12.00;;;;;;;6.54;51.13;102526.69;5221053;28;20045;-77
2022/03/06 11:51:21;;;;;;;13.93;12.52;;;;;;;6.56;49.62;102518.19;5201131;28;20033;-77
2022/03/06 11:54:07;;;;;;;13.20;11.57;;;;;;;6.30;48.95;102525.56;5199948;28;20031;-77
2022/03/06 11:56:55;;;;;;;13.40;12.00;;;;;;;6.34;48.92;102524.06;5232703;28;20076;-78
2022/03/06 11:59:29;;;;;;;14.95;12.55;;;;;;;6.53;49.65;102517.56;5240850;28;20041;-75
2022/03/06 12:02:12;;;;;;;15.95;13.30;;;;;;;6.59;48.47;102515.84;5241516;28;20163;-79
2022/03/06 12:04:46;;;;;;;13.07;11.70;;;;;;;6.69;48.05;102518.09;5210000;28;20026;-79
2022/03/06 12:07:17;;;;;;;13.52;11.20;;;;;;;6.80;48.95;102509.13;5200730;28;20022;-80
2022/03/06 12:09:52;;;;;;;13.45;11.57;;;;;;;6.88;48.40;102510.78;5200654;28;20025;-79
2022/03/06 12:12:25;;;;;;;24.75;21.38;;;;;;;6.88;47.36;102508.00;5210931;28;20029;-79
2022/03/06 12:14:57;;;;;;;14.65;13.07;;;;;;;6.95;47.41;102506.88;5240958;28;20562;-80
2022/03/06 12:17:31;;;;;;;12.27;10.98;;;;;;;7.22;47.72;102498.34;5220900;28;20030;-80
2022/03/06 12:20:08;;;;;;;14.10;11.77;;;;;;;7.32;46.09;102500.59;5220586;28;20030;-77
2022/03/06 12:22:48;;;;;;;13.80;12.15;;;;;;;7.26;46.14;102507.88;5219740;28;20025;-86
2022/03/06 12:25:24;;;;;;;12.82;11.45;;;;;;;7.39;46.31;102493.94;5203847;28;20030;-84
2022/03/06 12:28:08;;;;;;;12.98;11.55;;;;;;;7.55;45.55;102494.41;5211321;28;20022;-77
2022/03/06 12:30:39;;;;;;;13.43;11.98;;;;;;;7.53;44.09;102497.41;5236796;28;20028;-76
2022/03/06 12:33:31;;;;;;;19.00;15.30;;;;;;;7.59;43.73;102501.16;5225767;28;20477;-77
2022/03/06 12:36:11;;;;;;;14.20;12.70;;;;;;;7.61;44.30;102499.84;5223496;28;20053;-78
2022/03/06 12:38:52;;;;;;;14.05;12.55;;;;;;;7.51;43.32;102498.69;5207269;28;20378;-77
2022/03/06 12:41:27;;;;;;;13.32;11.70;;;;;;;7.60;43.61;102498.19;5200246;28;20363;-77
2022/03/06 12:44:05;;;;;;;14.63;13.15;;;;;;;7.81;43.90;102490.50;5220147;28;20093;-78
2022/03/06 12:46:36;;;;;;;14.85;11.55;;;;;;;8.00;46.07;102478.38;5232485;28;20022;-78
2022/03/06 12:49:07;;;;;;;14.18;12.68;;;;;;;8.03;42.46;102477.06;5245423;28;20056;-79
2022/03/06 12:51:39;;;;;;;13.85;12.38;;;;;;;8.21;43.89;102479.78;5245619;28;20080;-76
2022/03/06 12:54:19;;;;;;;15.25;11.95;;;;;;;8.32;42.42;102480.06;5244983;28;20028;-76
2022/03/06 12:56:56;;;;;;;12.65;11.35;;;;;;;8.37;41.58;102485.72;5235283;28;20026;-76
2022/03/06 12:59:27;;;;;;;12.73;11.43;;;;;;;8.31;40.90;102487.50;5210897;28;20149;-77
2022/03/06 13:01:58;;;;;;;15.15;11.10;;;;;;;8.49;42.02;102478.34;5224128;28;20179;-76
2022/03/06 13:04:31;;;;;;;14.15;12.65;;;;;;;8.34;42.25;102483.44;5238214;28;20034;-76
2022/03/06 13:07:06;;;;;;;13.57;11.57;;;;;;;7.93;42.07;102479.53;5230695;28;20495;-73
2022/03/06 13:09:37;;;;;;;13.40;11.80;;;;;;;8.10;41.66;102475.03;5223159;28;20061;-72
2022/03/06 13:12:09;;;;;;;13.32;11.10;;;;;;;8.11;40.77;102476.72;5223345;28;20202;-71
2022/03/06 13:14:40;;;;;;;14.90;12.80;;;;;;;8.22;40.97;102473.16;5213483;28;20406;-73
2022/03/06 13:17:12;;;;;;;12.50;11.20;;;;;;;8.44;41.50;102473.53;5205204;28;20022;-72
2022/03/06 13:19:46;;;;;;;11.60;10.40;;;;;;;8.61;41.62;102468.13;5224110;28;20040;-72
2022/03/06 13:22:19;;;;;;;12.93;11.02;;;;;;;8.77;40.22;102472.16;5230460;28;20125;-72
2022/03/06 13:24:53;;;;;;;10.88;9.77;;;;;;;8.63;40.39;102473.44;5222748;28;20453;-71
2022/03/06 13:27:27;;;;;;;12.65;10.45;;;;;;;8.45;41.29;102477.13;5223426;28;20385;-75
2022/03/06 13:30:11;;;;;;;11.32;10.13;;;;;;;8.24;41.35;102478.47;5223113;28;20415;-76
2022/03/06 13:32:45;;;;;;;10.35;9.35;;;;;;;8.18;41.23;102468.31;5223515;28;20108;-78
2022/03/06 13:35:43;;;;;;;11.48;10.27;;;;;;;8.03;41.39;102466.84;5223877;28;20022;-76
2022/03/06 13:38:24;;;;;;;14.20;11.25;;;;;;;7.91;40.76;102473.38;5224185;28;20392;-79
2022/03/06 13:41:06;;;;;;;12.60;10.27;;;;;;;7.71;40.95;102481.91;5224237;28;20116;-76
2022/03/06 13:43:44;;;;;;;12.57;10.40;;;;;;;7.63;41.89;102474.78;5226411;28;20049;-77
2022/03/06 13:46:16;;;;;;;39.25;32.58;;;;;;;7.83;43.07;102475.38;5224502;28;20022;-77
2022/03/06 13:48:48;;;;;;;19.10;12.00;;;;;;;7.54;41.65;102476.16;5215180;28;20030;-76
2022/03/06 13:51:23;;;;;;;22.67;11.25;;;;;;;7.92;41.65;102477.81;5222491;28;20040;-77
2022/03/06 13:53:56;;;;;;;14.40;11.55;;;;;;;8.12;41.12;102469.28;5219115;28;20030;-75
2022/03/06 13:56:30;;;;;;;15.95;10.75;;;;;;;8.39;40.79;102480.81;5208779;28;20035;-77
2022/03/06 13:59:04;;;;;;;12.43;10.80;;;;;;;8.25;39.90;102474.59;5221431;28;20471;-77
2022/03/06 14:01:36;;;;;;;26.23;22.77;;;;;;;8.00;40.22;102475.59;5217661;28;20461;-76
2022/03/06 14:04:09;;;;;;;10.98;9.73;;;;;;;8.16;40.51;102479.63;5222941;28;20018;-76
2022/03/06 14:06:44;;;;;;;11.32;10.30;;;;;;;8.18;40.80;102483.00;5220588;28;20030;-76
2022/03/06 14:09:27;;;;;;;10.35;9.27;;;;;;;8.18;40.44;102471.97;5216178;28;20030;-77
2022/03/06 14:12:13;;;;;;;11.70;9.52;;;;;;;8.14;39.36;102475.41;5242403;28;20392;-78
2022/03/06 14:14:47;;;;;;;10.65;9.40;;;;;;;8.03;39.17;102468.78;5241615;28;20057;-76
2022/03/06 14:17:19;;;;;;;13.30;9.68;;;;;;;8.18;39.52;102469.19;5217275;28;20025;-75
2022/03/06 14:19:58;;;;;;;10.48;9.48;;;;;;;8.59;39.89;102463.91;5208875;28;20081;-80
2022/03/06 14:22:30;;;;;;;10.05;9.05;;;;;;;8.70;39.41;102455.66;5210628;28;20126;-77
2022/03/06 14:25:01;;;;;;;11.00;9.80;;;;;;;8.93;38.52;102456.78;5209370;28;20105;-78
2022/03/06 14:27:34;;;;;;;11.13;9.60;;;;;;;8.76;38.68;102464.09;5215109;28;20022;-77
2022/03/06 14:30:05;;;;;;;10.70;9.60;;;;;;;8.87;38.68;102463.25;5221396;28;20034;-76
2022/03/06 14:32:37;;;;;;;9.55;8.15;;;;;;;8.83;38.23;102460.13;5215552;28;20485;-77
2022/03/06 14:35:08;;;;;;;9.82;8.82;;;;;;;8.73;38.12;102456.28;5222234;28;20032;-77
2022/03/06 14:37:40;;;;;;;10.90;9.23;;;;;;;8.59;38.46;102464.78;5218496;28;20080;-78
2022/03/06 14:40:11;;;;;;;10.48;9.38;;;;;;;8.37;38.21;102460.84;5213777;28;20105;-78
2022/03/06 14:42:42;;;;;;;9.73;8.60;;;;;;;8.29;38.58;102450.97;5214725;28;20030;-77
2022/03/06 14:45:13;;;;;;;9.55;8.65;;;;;;;8.52;39.30;102447.44;5225502;28;20069;-77
2022/03/06 14:47:45;;;;;;;9.88;8.77;;;;;;;8.56;38.57;102459.72;5221899;28;20084;-77
2022/03/06 14:50:16;;;;;;;12.30;10.13;;;;;;;8.38;39.19;102460.59;5222187;28;20013;-75
2022/03/06 14:52:47;;;;;;;11.57;8.95;;;;;;;8.32;39.11;102444.13;5217310;28;20120;-78
2022/03/06 14:55:19;;;;;;;9.57;8.35;;;;;;;8.45;39.48;102453.06;5220785;28;20030;-78
2022/03/06 14:57:50;;;;;;;8.95;7.80;;;;;;;8.53;39.59;102448.28;5201723;28;20129;-77
2022/03/06 15:00:22;;;;;;;10.85;8.10;;;;;;;8.56;39.64;102450.56;5201846;28;20058;-77
2022/03/06 15:02:56;;;;;;;11.00;8.55;;;;;;;8.54;39.95;102445.31;5219285;28;20034;-78
2022/03/06 15:05:27;;;;;;;8.55;7.70;;;;;;;8.32;39.66;102446.88;5216591;28;20030;-75
2022/03/06 15:07:58;;;;;;;9.70;8.70;;;;;;;8.48;39.68;102446.22;5221227;28;20028;-78
2022/03/06 15:10:30;;;;;;;8.40;7.60;;;;;;;8.37;39.31;102452.56;5220086;28;20092;-77
2022/03/06 15:13:03;;;;;;;8.98;8.07;;;;;;;8.09;39.13;102440.19;5215553;28;20022;-77
2022/03/06 15:15:35;;;;;;;9.55;8.43;;;;;;;7.92;39.40;102444.66;5202245;28;20033;-77
2022/03/06 15:18:06;;;;;;;10.38;8.90;;;;;;;8.26;39.84;102441.22;5200900;28;20027;-76
2022/03/06 15:20:38;;;;;;;9.23;7.93;;;;;;;8.37;39.93;102447.03;5228630;28;20109;-77
2022/03/06 15:23:09;;;;;;;11.85;9.82;;;;;;;8.40;39.63;102441.88;5220494;28;20030;-77
2022/03/06 15:25:40;;;;;;;9.18;8.18;;;;;;;8.63;39.00;102441.09;5205083;28;20057;-78
2022/03/06 15:28:13;;;;;;;9.68;8.07;;;;;;;8.25;39.53;102438.69;5221517;28;20033;-77
2022/03/06 15:30:46;;;;;;;9.23;8.27;;;;;;;8.43;38.77;102440.56;5209676;28;20030;-77
2022/03/06 15:33:18;;;;;;;10.80;8.82;;;;;;;8.44;38.49;102437.56;5220394;28;20022;-74
2022/03/06 15:35:49;;;;;;;8.77;7.88;;;;;;;8.64;38.98;102436.41;5219012;28;20509;-75
2022/03/06 15:38:20;;;;;;;8.65;7.75;;;;;;;8.73;38.07;102434.97;5225330;28;20034;-73
2022/03/06 15:40:52;;;;;;;8.80;7.90;;;;;;;8.57;38.41;102433.75;5220958;28;20026;-77
2022/03/06 15:43:23;;;;;;;9.55;8.23;;;;;;;8.61;38.47;102443.25;5220670;28;20527;-78
2022/03/06 15:45:54;;;;;;;10.63;8.57;;;;;;;8.80;38.04;102441.25;5219214;28;20037;-77
2022/03/06 15:48:26;;;;;;;13.77;12.05;;;;;;;8.65;37.79;102433.41;5203676;28;20022;-77
2022/03/06 15:50:57;;;;;;;8.95;8.10;;;;;;;8.16;37.70;102440.09;5211328;28;20812;-76
2022/03/06 15:53:32;;;;;;;8.82;7.35;;;;;;;8.15;38.49;102439.25;5212028;28;20017;-77
2022/03/06 15:56:05;;;;;;;11.87;7.27;;;;;;;8.19;38.95;102437.69;5230160;28;20101;-78
2022/03/06 15:58:36;;;;;;;10.70;7.65;;;;;;;8.21;38.94;102443.84;5199435;28;20042;-78
2022/03/06 16:01:07;;;;;;;9.18;8.10;;;;;;;8.12;39.01;102439.72;5206633;28;20049;-76
2022/03/06 16:03:39;;;;;;;8.77;7.15;;;;;;;7.82;38.96;102435.03;5216292;28;20429;-76
2022/03/06 16:06:10;;;;;;;8.75;7.72;;;;;;;8.01;39.31;102429.47;5199643;28;20030;-76
2022/03/06 16:08:42;;;;;;;8.85;7.70;;;;;;;7.74;39.78;102432.56;5207952;28;20020;-75
2022/03/06 16:11:16;;;;;;;8.65;7.75;;;;;;;7.78;39.63;102439.31;5230727;28;20107;-78
2022/03/06 16:13:50;;;;;;;9.05;8.15;;;;;;;7.74;40.04;102437.25;5235466;28;20018;-77
2022/03/06 16:16:21;;;;;;;9.38;8.00;;;;;;;7.49;40.77;102440.09;5204337;28;20035;-77
2022/03/06 16:18:52;;;;;;;9.63;8.63;;;;;;;7.48;41.03;102435.66;5212308;28;20049;-77
2022/03/06 16:21:24;;;;;;;7.60;6.90;;;;;;;7.51;41.23;102441.56;5224351;28;20038;-78
2022/03/06 16:23:55;;;;;;;9.10;8.20;;;;;;;7.55;41.14;102433.69;5224831;28;20026;-78
2022/03/06 16:26:26;;;;;;;10.40;8.77;;;;;;;7.42;41.86;102433.84;5223036;28;20034;-78
2022/03/06 16:28:59;;;;;;;8.85;7.95;;;;;;;7.40;41.78;102437.66;5225713;28;20030;-78
2022/03/06 16:31:33;;;;;;;8.80;7.90;;;;;;;7.22;42.21;102432.13;5222946;28;20041;-77
2022/03/06 16:34:05;;;;;;;9.75;7.22;;;;;;;7.11;42.84;102430.13;5225445;28;20034;-78
2022/03/06 16:36:36;;;;;;;10.77;7.63;;;;;;;6.97;42.63;102440.44;5215087;28;20033;-77
2022/03/06 16:39:07;;;;;;;8.13;7.28;;;;;;;7.14;42.62;102430.50;5204587;28;20030;-75
2022/03/06 16:41:39;;;;;;;9.25;7.75;;;;;;;6.83;43.09;102436.97;5208361;28;20450;-77
2022/03/06 16:44:13;;;;;;;9.00;7.25;;;;;;;6.69;43.49;102429.88;5210876;28;20024;-77
2022/03/06 16:46:44;;;;;;;8.85;7.88;;;;;;;6.79;43.71;102434.88;5221696;28;20537;-78
2022/03/06 16:49:16;;;;;;;8.70;7.43;;;;;;;6.86;44.00;102436.50;5214651;28;20026;-78
2022/03/06 16:51:48;;;;;;;7.47;6.78;;;;;;;6.80;43.88;102437.44;5204536;28;20026;-79
2022/03/06 16:54:20;;;;;;;10.43;8.80;;;;;;;6.85;43.88;102440.34;5219912;28;20111;-77
2022/03/06 16:56:52;;;;;;;8.93;8.00;;;;;;;6.88;44.15;102439.91;5212069;28;20042;-80
2022/03/06 16:59:23;;;;;;;10.68;7.50;;;;;;;6.83;44.03;102436.13;5205450;28;20034;-80
2022/03/06 17:01:54;;;;;;;9.77;7.18;;;;;;;6.81;43.83;102444.63;5223543;28;20034;-78
2022/03/06 17:04:26;;;;;;;11.43;8.45;;;;;;;6.79;43.83;102437.66;5217503;28;20080;-79
2022/03/06 17:06:57;;;;;;;8.25;7.10;;;;;;;6.70;44.36;102443.44;5221243;28;20034;-79
2022/03/06 17:09:30;;;;;;;13.10;10.88;;;;;;;6.59;44.39;102446.91;5223644;28;20034;-79
2022/03/06 17:12:02;;;;;;;8.65;7.40;;;;;;;6.66;44.53;102446.88;5222898;28;20029;-79
2022/03/06 17:14:34;;;;;;;10.88;7.32;;;;;;;6.56;44.61;102446.53;5218540;28;20034;-80
2022/03/06 17:17:06;;;;;;;9.82;7.45;;;;;;;6.50;44.79;102443.59;5210715;28;20028;-79
2022/03/06 17:19:37;;;;;;;9.77;6.70;;;;;;;6.47;44.85;102452.31;5236460;28;20033;-79
2022/03/06 17:22:08;;;;;;;7.80;6.88;;;;;;;6.35;44.57;102459.59;5228207;28;20100;-80
2022/03/06 17:24:40;;;;;;;7.55;6.75;;;;;;;6.39;45.02;102468.25;5224905;28;20030;-81
2022/03/06 17:27:11;;;;;;;8.07;6.70;;;;;;;6.32;44.74;102465.56;5226293;28;20040;-78
2022/03/06 17:29:42;;;;;;;7.78;6.30;;;;;;;6.37;44.80;102470.41;5212226;28;20073;-81
